Time;durP1;ratioP1;P1;durP2;ratioP2;P2;SDS_P1;SDS_P2;PMS_P1;PMS_P2;Temp;Humidity;BMP_temperature;BMP_pressure;BME280_temperature;BME280_humidity;BME280_pressure;Samples;Min_cycle;Max_cycle;Signal;HPM_P1;HPM_P2
2021/12/29 00:01:06;;;;;;;18.15;7.35;;;6.70;99.90;;;;;;4806742;29;20140;-90
2021/12/29 00:03:32;;;;;;;12.30;6.22;;;6.70;99.90;;;;;;4806601;29;20051;-89
2021/12/29 00:05:57;;;;;;;15.77;7.55;;;6.70;99.90;;;;;;4805495;29;20051;-90
2021/12/29 00:08:23;;;;;;;12.02;6.30;;;6.70;99.90;;;;;;4805685;29;20046;-90
2021/12/29 00:10:54;;;;;;;18.80;6.97;;;6.70;99.90;;;;;;4806758;29;20047;-90
2021/12/29 00:13:22;;;;;;;17.75;7.47;;;6.60;99.90;;;;;;4805112;29;20055;-89
2021/12/29 00:15:47;;;;;;;13.30;6.95;;;6.70;99.90;;;;;;4793019;29;20059;-90
2021/12/29 00:18:13;;;;;;;20.20;7.30;;;6.70;99.90;;;;;;4788064;30;20054;-90
2021/12/29 00:20:38;;;;;;;14.75;7.90;;;6.70;99.90;;;;;;4787327;30;20118;-89
2021/12/29 00:23:04;;;;;;;14.57;7.90;;;6.60;99.90;;;;;;4787973;29;20489;-88
2021/12/29 00:25:30;;;;;;;16.42;7.95;;;6.80;99.90;;;;;;4772124;30;20066;-90
2021/12/29 00:27:58;;;;;;;15.45;8.05;;;6.70;99.90;;;;;;4787138;30;20499;-90
2021/12/29 00:30:24;;;;;;;20.40;8.02;;;6.70;99.90;;;;;;4786742;30;20059;-90
2021/12/29 00:32:50;;;;;;;22.83;9.43;;;6.70;99.90;;;;;;4787263;30;20123;-90
2021/12/29 00:35:16;;;;;;;24.27;9.30;;;6.70;99.90;;;;;;4786803;30;20051;-90
2021/12/29 00:37:41;;;;;;;29.15;10.27;;;6.80;99.90;;;;;;4787023;30;20097;-91
2021/12/29 00:40:08;;;;;;;23.70;9.55;;;6.70;99.90;;;;;;4789730;29;20087;-90
2021/12/29 00:42:34;;;;;;;20.73;9.50;;;6.70;99.90;;;;;;4786374;30;20584;-90
2021/12/29 00:44:59;;;;;;;30.30;10.57;;;6.70;99.90;;;;;;4788217;29;20059;-90
2021/12/29 00:47:29;;;;;;;32.95;11.43;;;6.80;99.90;;;;;;4771917;30;20047;-90
2021/12/29 00:49:55;;;;;;;29.23;11.40;;;6.80;99.90;;;;;;4786600;30;20498;-90
2021/12/29 00:52:21;;;;;;;47.70;11.93;;;6.80;99.90;;;;;;4771660;30;20066;-90
2021/12/29 00:54:46;;;;;;;27.00;11.07;;;6.80;99.90;;;;;;4771594;30;20142;-91
2021/12/29 00:57:12;;;;;;;31.77;11.18;;;6.80;99.90;;;;;;4787667;29;20055;-86
2021/12/29 00:59:38;;;;;;;27.90;10.57;;;6.80;99.90;;;;;;4788278;29;20055;-91
2021/12/29 01:02:04;;;;;;;39.65;11.82;;;6.80;99.90;;;;;;4786825;30;20051;-91
2021/12/29 01:04:29;;;;;;;33.70;11.70;;;6.80;99.90;;;;;;4786362;30;20055;-90
2021/12/29 01:06:55;;;;;;;29.95;11.70;;;6.80;99.90;;;;;;4787254;29;20055;-90
2021/12/29 01:09:21;;;;;;;45.20;13.27;;;6.90;99.90;;;;;;4786869;29;20051;-90
2021/12/29 01:11:46;;;;;;;41.67;12.82;;;6.90;99.90;;;;;;4787942;29;20047;-89
2021/12/29 01:14:12;;;;;;;31.38;11.98;;;6.90;99.90;;;;;;4790203;29;20465;-90
2021/12/29 01:16:38;;;;;;;38.33;12.45;;;7.00;99.90;;;;;;4786070;30;20055;-90
2021/12/29 01:19:11;;;;;;;37.90;12.95;;;6.90;99.90;;;;;;4787090;29;20455;-91
2021/12/29 01:21:37;;;;;;;44.90;14.88;;;7.00;99.90;;;;;;4804200;29;20051;-90
2021/12/29 01:24:04;;;;;;;45.55;14.27;;;7.00;99.90;;;;;;4789673;29;20046;-90
2021/12/29 01:26:29;;;;;;;49.22;13.88;;;7.00;99.90;;;;;;4789329;29;20064;-91
2021/12/29 01:28:55;;;;;;;43.08;14.25;;;7.00;99.90;;;;;;4805262;29;20454;-89
2021/12/29 01:31:21;;;;;;;46.10;13.98;;;7.10;99.90;;;;;;4803439;29;20521;-90
2021/12/29 01:33:46;;;;;;;37.67;14.00;;;7.10;99.90;;;;;;4797473;29;20047;-89
2021/12/29 01:36:12;;;;;;;44.13;14.55;;;7.00;99.90;;;;;;4788256;29;20155;-91
2021/12/29 01:38:37;;;;;;;62.70;15.38;;;7.00;99.90;;;;;;4770868;30;20098;-89
2021/12/29 01:41:03;;;;;;;67.15;16.17;;;7.00;99.90;;;;;;4786210;30;20052;-89
2021/12/29 01:43:29;;;;;;;67.00;17.50;;;7.10;99.90;;;;;;4785664;30;20495;-90
2021/12/29 01:45:55;;;;;;;68.07;17.40;;;7.00;99.90;;;;;;4801250;29;20051;-90
2021/12/29 01:48:20;;;;;;;55.50;17.20;;;7.10;99.90;;;;;;4800677;29;20051;-90
2021/12/29 01:50:50;;;;;;;74.80;17.80;;;7.10;99.90;;;;;;4786502;30;20065;-90
2021/12/29 01:53:23;;;;;;;64.65;17.02;;;7.10;99.90;;;;;;4786290;30;20523;-90
2021/12/29 01:55:48;;;;;;;52.63;16.02;;;7.10;99.90;;;;;;4801629;29;20109;-90
2021/12/29 01:58:14;;;;;;;64.03;15.77;;;7.20;99.90;;;;;;4787161;29;20096;-91
2021/12/29 02:00:41;;;;;;;58.47;14.82;;;7.10;99.90;;;;;;4800695;29;20047;-90
2021/12/29 02:03:08;;;;;;;45.05;15.35;;;7.10;99.90;;;;;;4800899;29;20051;-91
2021/12/29 02:05:35;;;;;;;47.83;14.20;;;7.10;99.90;;;;;;4785897;30;20262;-90
2021/12/29 02:08:00;;;;;;;38.17;11.38;;;7.20;99.90;;;;;;4786310;30;20465;-90
2021/12/29 02:10:31;;;;;;;45.42;12.02;;;7.10;99.90;;;;;;4786966;29;20134;-90
2021/12/29 02:12:58;;;;;;;50.42;10.70;;;7.20;99.90;;;;;;4785607;30;20100;-91
2021/12/29 02:15:24;;;;;;;45.65;11.25;;;7.20;99.90;;;;;;4785311;30;20134;-90
2021/12/29 02:17:50;;;;;;;51.42;10.70;;;7.30;99.90;;;;;;4802133;29;20188;-91
2021/12/29 02:20:18;;;;;;;37.65;9.88;;;7.20;99.90;;;;;;4803942;29;20134;-91
2021/12/29 02:22:48;;;;;;;37.03;10.15;;;7.20;99.90;;;;;;4789921;30;20506;-91
2021/12/29 02:27:47;;;;;;;36.92;9.85;;;7.20;99.90;;;;;;4788915;30;20090;-91
2021/12/29 02:30:13;;;;;;;41.25;9.25;;;7.20;99.90;;;;;;4790882;30;20047;-90
2021/12/29 02:32:39;;;;;;;34.55;8.98;;;7.30;99.90;;;;;;4803725;29;20135;-90
2021/12/29 02:35:05;;;;;;;28.55;8.80;;;7.20;99.90;;;;;;4804341;29;20130;-90
2021/12/29 02:37:31;;;;;;;31.33;8.85;;;7.20;99.90;;;;;;4789768;29;20048;-90
2021/12/29 02:39:56;;;;;;;27.80;8.55;;;7.20;99.90;;;;;;4803821;29;20063;-89
2021/12/29 02:42:25;;;;;;;33.15;9.77;;;7.20;99.90;;;;;;4788667;30;20094;-89
2021/12/29 02:44:52;;;;;;;32.95;10.25;;;7.30;99.90;;;;;;4803182;29;20130;-90
2021/12/29 02:47:17;;;;;;;31.20;10.05;;;7.40;99.90;;;;;;4790294;30;20058;-90
2021/12/29 02:49:45;;;;;;;29.55;10.60;;;7.30;99.90;;;;;;4789671;29;20043;-90
2021/12/29 02:52:11;;;;;;;33.15;10.63;;;7.30;99.90;;;;;;4790294;29;20061;-89
2021/12/29 02:54:37;;;;;;;33.63;11.27;;;7.40;99.90;;;;;;4789755;30;20051;-89
2021/12/29 02:57:03;;;;;;;30.88;11.70;;;7.40;99.90;;;;;;4803848;29;20548;-90
2021/12/29 02:59:28;;;;;;;30.92;11.95;;;7.40;99.90;;;;;;4790016;29;20126;-90
2021/12/29 03:01:54;;;;;;;34.75;12.30;;;7.40;99.90;;;;;;4790081;29;20066;-91
2021/12/29 03:04:20;;;;;;;35.72;13.02;;;7.50;99.90;;;;;;4803717;29;20138;-91
2021/12/29 03:06:45;;;;;;;39.45;12.57;;;7.40;99.90;;;;;;4803248;29;20134;-91
2021/12/29 03:09:12;;;;;;;30.63;13.88;;;7.50;99.90;;;;;;4803827;29;20139;-90
2021/12/29 03:11:40;;;;;;;35.83;14.60;;;7.50;99.90;;;;;;4803144;29;20055;-89
2021/12/29 03:14:05;;;;;;;40.05;14.57;;;7.50;99.90;;;;;;4788561;30;20063;-90
2021/12/29 03:16:33;;;;;;;30.73;14.88;;;7.50;99.90;;;;;;4803513;29;20055;-90
2021/12/29 03:18:58;;;;;;;37.38;15.95;;;7.50;99.90;;;;;;4789613;30;20138;-90
2021/12/29 03:21:24;;;;;;;37.90;16.63;;;7.50;99.90;;;;;;4789670;29;20134;-91
2021/12/29 03:23:50;;;;;;;33.22;15.82;;;7.50;99.90;;;;;;4788399;29;20499;-90
2021/12/29 03:26:16;;;;;;;37.92;16.00;;;7.50;99.90;;;;;;4789662;29;20051;-90
2021/12/29 03:28:43;;;;;;;34.92;16.23;;;7.60;99.90;;;;;;4802533;29;20056;-91
2021/12/29 03:31:11;;;;;;;39.20;16.45;;;7.60;99.90;;;;;;4788065;30;20055;-91
2021/12/29 03:33:37;;;;;;;34.08;16.30;;;7.50;99.90;;;;;;4802431;29;20084;-90
2021/12/29 03:36:04;;;;;;;34.20;16.75;;;7.60;99.90;;;;;;4803266;29;20383;-90
2021/12/29 03:38:31;;;;;;;39.38;17.80;;;7.60;99.90;;;;;;4803046;29;20078;-91
2021/12/29 03:40:57;;;;;;;31.10;16.58;;;7.60;99.90;;;;;;4802791;29;20055;-92
2021/12/29 03:43:23;;;;;;;32.75;17.13;;;7.60;99.90;;;;;;4802851;29;20471;-91
2021/12/29 03:45:51;;;;;;;38.72;17.27;;;7.60;99.90;;;;;;4797627;29;20126;-91
2021/12/29 03:48:17;;;;;;;34.72;17.75;;;7.70;99.90;;;;;;4758847;30;20062;-91
2021/12/29 03:50:43;;;;;;;41.33;18.15;;;7.60;99.90;;;;;;4799276;29;20051;-91
2021/12/29 03:53:09;;;;;;;32.13;17.88;;;7.60;99.90;;;;;;4805763;29;20054;-91
2021/12/29 03:55:35;;;;;;;37.55;18.75;;;7.60;99.90;;;;;;4791100;29;20155;-91
2021/12/29 03:58:00;;;;;;;40.30;18.42;;;7.60;99.90;;;;;;4775772;29;20119;-89
2021/12/29 04:00:26;;;;;;;38.13;18.83;;;7.60;99.90;;;;;;4807172;29;20050;-91
2021/12/29 04:02:52;;;;;;;33.03;17.15;;;7.60;99.90;;;;;;4795043;29;20430;-91
2021/12/29 04:05:20;;;;;;;25.95;16.48;;;7.60;99.90;;;;;;4787726;30;20049;-90
2021/12/29 04:07:46;;;;;;;31.45;17.00;;;7.60;99.90;;;;;;4788613;29;20059;-91
2021/12/29 04:10:11;;;;;;;28.08;17.05;;;7.50;99.90;;;;;;4787922;30;20062;-90
2021/12/29 04:12:41;;;;;;;28.90;16.05;;;7.60;99.90;;;;;;4787264;30;20047;-90
2021/12/29 04:15:08;;;;;;;26.70;15.68;;;7.60;99.90;;;;;;4773161;30;20050;-90
2021/12/29 04:17:37;;;;;;;28.30;15.07;;;7.60;99.90;;;;;;4787129;30;20541;-90
2021/12/29 04:22:54;;;;;;;32.13;15.38;;;7.60;99.90;;;;;;4774641;30;20124;-90
2021/12/29 04:25:24;;;;;;;28.60;15.07;;;7.60;99.90;;;;;;4788484;29;20444;-91
2021/12/29 04:27:53;;;;;;;25.02;14.60;;;7.60;99.90;;;;;;4787184;29;20502;-90
2021/12/29 04:30:20;;;;;;;30.92;15.07;;;7.60;99.90;;;;;;4788240;29;20059;-89
2021/12/29 04:32:46;;;;;;;25.17;14.65;;;7.60;99.90;;;;;;4786638;30;20406;-90
2021/12/29 04:35:11;;;;;;;20.85;13.43;;;7.60;99.90;;;;;;4788262;29;20058;-91
2021/12/29 04:37:37;;;;;;;24.50;14.25;;;7.60;99.90;;;;;;4772705;30;20062;-91
2021/12/29 04:40:04;;;;;;;23.33;13.77;;;7.60;99.90;;;;;;4771262;29;20055;-90
2021/12/29 04:42:30;;;;;;;23.08;13.65;;;7.60;99.90;;;;;;4786860;30;20532;-91
2021/12/29 04:44:56;;;;;;;21.50;13.38;;;7.60;99.90;;;;;;4787813;29;20146;-91
2021/12/29 04:47:28;;;;;;;27.08;14.90;;;7.60;99.90;;;;;;4787103;30;20047;-90
2021/12/29 04:49:54;;;;;;;25.83;14.35;;;7.70;99.90;;;;;;4786465;29;20058;-89
2021/12/29 04:52:19;;;;;;;25.65;14.18;;;7.60;99.90;;;;;;4798827;29;20058;-90
2021/12/29 04:54:45;;;;;;;24.20;14.48;;;7.70;99.90;;;;;;4786656;30;20129;-89
2021/12/29 04:57:10;;;;;;;29.77;14.95;;;7.60;99.90;;;;;;4756791;30;20051;-90
2021/12/29 04:59:36;;;;;;;22.65;13.45;;;7.70;99.90;;;;;;4801454;29;20047;-90
2021/12/29 05:02:02;;;;;;;25.15;13.80;;;7.70;99.90;;;;;;4786423;30;20058;-90
2021/12/29 05:04:33;;;;;;;21.48;13.02;;;7.70;99.90;;;;;;4786485;30;20116;-89
2021/12/29 05:09:44;;;;;;;23.77;12.98;;;7.70;99.90;;;;;;4774263;30;20424;-91
2021/12/29 05:12:09;;;;;;;24.52;13.13;;;7.70;99.90;;;;;;4801167;29;20058;-90
2021/12/29 05:14:35;;;;;;;26.60;13.30;;;7.60;99.90;;;;;;4787025;29;20478;-90
2021/12/29 05:17:01;;;;;;;24.13;12.55;;;7.70;99.90;;;;;;4785953;30;20486;-90
2021/12/29 05:19:27;;;;;;;25.38;13.32;;;7.70;99.90;;;;;;4801447;29;20055;-90
2021/12/29 05:21:53;;;;;;;25.33;12.45;;;7.70;99.90;;;;;;4799222;29;20062;-90
2021/12/29 05:24:18;;;;;;;22.27;12.75;;;7.60;99.90;;;;;;4789169;29;20051;-88
2021/12/29 05:26:44;;;;;;;25.95;13.07;;;7.60;99.90;;;;;;4786095;30;20055;-90
2021/12/29 05:29:09;;;;;;;28.17;14.07;;;7.70;99.90;;;;;;4786265;29;20055;-89
2021/12/29 05:31:35;;;;;;;23.27;13.23;;;7.70;99.90;;;;;;4787356;29;20506;-91
2021/12/29 05:34:01;;;;;;;22.08;12.55;;;7.70;99.90;;;;;;4786833;29;20047;-89
2021/12/29 05:36:26;;;;;;;22.10;12.35;;;7.60;99.90;;;;;;4787350;29;20066;-95
2021/12/29 05:38:53;;;;;;;23.35;12.40;;;7.60;99.90;;;;;;4786203;30;20062;-94
2021/12/29 05:41:20;;;;;;;25.55;12.93;;;7.60;99.90;;;;;;4771755;30;20059;-94
2021/12/29 05:43:45;;;;;;;23.77;12.35;;;7.60;99.90;;;;;;4786537;30;20495;-94
2021/12/29 05:46:11;;;;;;;25.90;13.45;;;7.60;99.90;;;;;;4786435;30;20187;-93
2021/12/29 05:48:37;;;;;;;24.40;13.13;;;7.70;99.90;;;;;;4787142;29;20047;-96
2021/12/29 05:51:02;;;;;;;24.33;13.48;;;7.60;99.90;;;;;;4786741;29;20393;-96
2021/12/29 05:53:28;;;;;;;29.63;13.38;;;7.60;99.90;;;;;;4787968;29;20040;-95
2021/12/29 05:55:53;;;;;;;26.33;12.35;;;7.70;99.90;;;;;;4789884;30;20464;-94
2021/12/29 05:58:19;;;;;;;27.45;13.02;;;7.70;99.90;;;;;;4774764;30;20055;-95
2021/12/29 06:00:45;;;;;;;29.73;12.80;;;7.70;99.90;;;;;;4789789;30;20138;-89
2021/12/29 06:03:10;;;;;;;27.13;12.13;;;7.70;99.90;;;;;;4789763;30;20110;-89
2021/12/29 06:05:37;;;;;;;23.52;11.93;;;7.70;99.90;;;;;;4804708;29;20456;-89
2021/12/29 06:08:03;;;;;;;25.73;12.55;;;7.70;99.90;;;;;;4773957;30;20063;-88
2021/12/29 06:10:30;;;;;;;29.58;12.73;;;7.70;99.90;;;;;;4790028;30;20227;-88
2021/12/29 06:12:55;;;;;;;35.92;12.43;;;7.70;99.90;;;;;;4790306;29;20051;-92
2021/12/29 06:15:21;;;;;;;28.55;12.90;;;7.70;99.90;;;;;;4790468;29;20388;-90
2021/12/29 06:17:47;;;;;;;28.10;12.23;;;7.70;99.90;;;;;;4790483;29;20059;-92
2021/12/29 06:20:12;;;;;;;33.90;12.40;;;7.70;99.90;;;;;;4789513;29;20066;-91
2021/12/29 06:22:38;;;;;;;32.15;12.52;;;7.60;99.90;;;;;;4774535;30;20051;-92
2021/12/29 06:25:05;;;;;;;32.90;12.68;;;7.70;99.90;;;;;;4790279;29;20133;-91
2021/12/29 06:27:33;;;;;;;33.80;12.63;;;7.70;99.90;;;;;;4789349;30;20081;-91
2021/12/29 06:29:59;;;;;;;32.85;13.07;;;7.70;99.90;;;;;;4789384;30;20117;-92
2021/12/29 06:32:26;;;;;;;33.45;12.30;;;7.70;99.90;;;;;;4790259;29;20063;-91
2021/12/29 06:34:51;;;;;;;27.00;12.48;;;7.70;99.90;;;;;;4774409;30;20047;-92
2021/12/29 06:37:17;;;;;;;33.05;13.07;;;7.70;99.90;;;;;;4788784;30;20051;-92
2021/12/29 06:39:44;;;;;;;34.88;13.20;;;7.70;99.90;;;;;;4759601;30;20059;-92
2021/12/29 06:42:10;;;;;;;37.78;13.90;;;7.70;99.90;;;;;;4773946;30;20059;-90
2021/12/29 06:44:36;;;;;;;37.00;13.95;;;7.70;99.90;;;;;;4774386;30;20491;-93
2021/12/29 06:47:02;;;;;;;32.88;13.70;;;7.80;99.90;;;;;;4774284;30;20499;-91
2021/12/29 06:49:28;;;;;;;35.30;13.95;;;7.70;99.90;;;;;;4789218;30;20051;-92
2021/12/29 06:51:53;;;;;;;45.33;14.80;;;7.70;99.90;;;;;;4773815;30;20418;-92
2021/12/29 06:54:19;;;;;;;35.75;14.05;;;7.70;99.90;;;;;;4789656;30;20398;-92
2021/12/29 06:56:45;;;;;;;33.10;13.80;;;7.70;99.90;;;;;;4790189;29;20130;-93
2021/12/29 06:59:10;;;;;;;40.65;13.52;;;7.70;99.90;;;;;;4788544;30;20061;-91
2021/12/29 07:01:36;;;;;;;39.80;13.05;;;7.70;99.90;;;;;;4789281;30;20055;-92
2021/12/29 07:04:03;;;;;;;32.33;12.38;;;7.70;99.90;;;;;;4788754;29;20398;-92
2021/12/29 07:06:29;;;;;;;31.50;12.13;;;7.70;99.90;;;;;;4788194;30;20409;-92
2021/12/29 07:08:54;;;;;;;28.35;11.65;;;7.70;99.90;;;;;;4759054;30;20138;-92
2021/12/29 07:11:20;;;;;;;30.25;11.23;;;7.70;99.90;;;;;;4773368;30;20059;-91
2021/12/29 07:13:46;;;;;;;31.30;11.40;;;7.70;99.90;;;;;;4788521;30;20078;-91
2021/12/29 07:16:12;;;;;;;30.33;11.43;;;7.70;99.90;;;;;;4788076;30;20112;-92
2021/12/29 07:18:38;;;;;;;26.90;11.13;;;7.70;99.90;;;;;;4788742;30;20061;-92
2021/12/29 07:21:03;;;;;;;34.05;11.32;;;7.80;99.90;;;;;;4789675;29;20051;-91
2021/12/29 07:23:29;;;;;;;29.17;11.07;;;7.70;99.90;;;;;;4787408;29;20454;-90
2021/12/29 07:25:54;;;;;;;45.75;12.65;;;7.70;99.90;;;;;;4797257;29;20046;-92
2021/12/29 07:28:20;;;;;;;35.10;11.23;;;7.70;99.90;;;;;;4805857;29;20394;-91
2021/12/29 07:30:46;;;;;;;37.47;12.20;;;7.70;99.90;;;;;;4780684;30;20464;-93
2021/12/29 07:33:11;;;;;;;37.80;13.02;;;7.70;99.90;;;;;;4773303;30;20443;-90
2021/12/29 07:35:37;;;;;;;123.05;14.98;;;7.60;99.90;;;;;;4789543;30;20051;-91
2021/12/29 07:38:05;;;;;;;46.83;12.57;;;7.70;99.90;;;;;;4788156;30;20104;-90
2021/12/29 07:40:31;;;;;;;47.47;13.38;;;7.70;99.90;;;;;;4773332;30;20203;-91
2021/12/29 07:42:58;;;;;;;48.05;11.98;;;7.80;99.90;;;;;;4788034;30;20134;-91
2021/12/29 07:45:25;;;;;;;71.68;14.00;;;7.70;99.90;;;;;;4787948;30;20059;-91
2021/12/29 07:47:51;;;;;;;44.50;12.98;;;7.70;99.90;;;;;;4789195;29;20411;-91
2021/12/29 07:50:18;;;;;;;40.78;12.05;;;7.70;99.90;;;;;;4788590;29;20055;-89
2021/12/29 07:52:48;;;;;;;44.13;13.73;;;7.80;99.90;;;;;;4789035;29;20116;-92
2021/12/29 07:55:17;;;;;;;49.50;12.45;;;7.70;99.90;;;;;;4787228;30;20070;-90
2021/12/29 07:57:43;;;;;;;38.83;12.30;;;7.70;99.90;;;;;;4772975;30;20159;-91
2021/12/29 08:00:09;;;;;;;36.28;12.73;;;7.70;99.90;;;;;;4787982;30;20510;-90
2021/12/29 08:02:35;;;;;;;41.75;12.50;;;7.70;99.90;;;;;;4787300;30;20112;-91
2021/12/29 08:05:01;;;;;;;40.70;13.25;;;7.70;99.90;;;;;;4788807;30;20051;-90
2021/12/29 08:07:26;;;;;;;46.53;12.57;;;7.70;99.90;;;;;;4787352;30;20062;-91
2021/12/29 08:09:55;;;;;;;36.83;12.40;;;7.70;99.90;;;;;;4772432;30;20047;-91
2021/12/29 08:12:21;;;;;;;42.85;13.23;;;7.80;99.90;;;;;;4787924;29;20043;-90
2021/12/29 08:14:47;;;;;;;49.83;13.52;;;7.80;99.90;;;;;;4788893;29;20532;-91
2021/12/29 08:17:13;;;;;;;64.15;13.25;;;7.80;99.90;;;;;;4788126;29;20055;-91
2021/12/29 08:19:39;;;;;;;60.92;12.98;;;7.80;99.90;;;;;;4787828;29;20078;-91
2021/12/29 08:22:04;;;;;;;84.95;13.15;;;7.80;99.90;;;;;;4788370;29;20097;-87
2021/12/29 08:24:32;;;;;;;70.47;12.15;;;7.80;99.90;;;;;;4786911;30;20054;-88
2021/12/29 08:26:58;;;;;;;71.35;12.38;;;7.90;99.90;;;;;;4787672;30;20101;-91
2021/12/29 08:29:24;;;;;;;66.80;12.15;;;7.80;99.90;;;;;;4786537;30;20086;-93
2021/12/29 08:31:49;;;;;;;44.97;11.48;;;7.90;99.90;;;;;;4787277;30;20051;-92
2021/12/29 08:34:15;;;;;;;45.78;11.90;;;7.90;99.90;;;;;;4787250;30;20047;-92
2021/12/29 08:36:41;;;;;;;52.45;12.23;;;7.80;99.90;;;;;;4787753;29;20050;-91
2021/12/29 08:39:07;;;;;;;51.10;11.38;;;7.90;99.90;;;;;;4786981;30;20208;-91
2021/12/29 08:41:33;;;;;;;49.50;12.50;;;7.90;99.90;;;;;;4786852;30;20134;-91
2021/12/29 08:43:58;;;;;;;40.42;11.88;;;7.90;99.90;;;;;;4787158;30;20047;-89
2021/12/29 08:46:24;;;;;;;36.10;11.32;;;7.90;99.90;;;;;;4786636;30;20051;-90
2021/12/29 08:48:49;;;;;;;43.17;13.15;;;7.90;99.90;;;;;;4788248;29;20058;-89
2021/12/29 08:51:17;;;;;;;52.20;13.55;;;8.00;99.90;;;;;;4771721;30;20056;-88
2021/12/29 08:53:42;;;;;;;70.10;14.30;;;7.90;99.90;;;;;;4771697;30;20055;-94
2021/12/29 08:56:08;;;;;;;33.15;12.15;;;7.90;99.90;;;;;;4757330;30;20458;-90
2021/12/29 08:58:34;;;;;;;49.30;12.98;;;7.90;99.90;;;;;;4786156;30;20051;-91
2021/12/29 09:01:00;;;;;;;70.03;13.15;;;8.00;99.90;;;;;;4788004;29;20058;-91
2021/12/29 09:03:26;;;;;;;61.42;13.18;;;8.00;99.90;;;;;;4787616;29;20104;-91
2021/12/29 09:05:52;;;;;;;49.45;12.23;;;7.90;99.90;;;;;;4771659;30;20062;-91
2021/12/29 09:08:17;;;;;;;68.93;15.05;;;8.00;99.90;;;;;;4786780;30;20478;-90
2021/12/29 09:10:44;;;;;;;93.68;13.05;;;8.00;99.90;;;;;;4787104;29;20406;-90
2021/12/29 09:13:10;;;;;;;72.68;11.90;;;8.00;99.90;;;;;;4786223;30;20104;-90
2021/12/29 09:15:36;;;;;;;54.80;11.85;;;8.00;99.90;;;;;;4771321;30;20078;-90
2021/12/29 09:18:02;;;;;;;73.40;13.50;;;8.00;99.90;;;;;;4787782;29;20055;-90
2021/12/29 09:20:30;;;;;;;86.85;12.05;;;8.10;99.90;;;;;;4771090;30;20047;-91
2021/12/29 09:22:59;;;;;;;54.50;12.40;;;8.10;99.90;;;;;;4786221;30;20459;-93
2021/12/29 09:25:25;;;;;;;66.80;12.07;;;8.10;99.90;;;;;;4771663;30;20062;-93
2021/12/29 09:27:51;;;;;;;37.03;10.80;;;8.10;99.90;;;;;;4770823;30;20095;-94
2021/12/29 09:30:21;;;;;;;27.60;10.07;;;8.20;99.90;;;;;;4787502;30;20097;-91
2021/12/29 09:32:47;;;;;;;;;;;8.20;99.90;;;;;;4786329;30;20063;-91
2021/12/29 09:35:13;;;;;;;19.17;8.45;;;8.10;99.90;;;;;;4803211;29;19996;-92
2021/12/29 09:37:39;;;;;;;25.52;8.90;;;8.10;99.90;;;;;;4774006;29;20390;-91
2021/12/29 09:40:06;;;;;;;16.35;8.18;;;8.10;99.90;;;;;;4789301;29;20575;-92
2021/12/29 09:42:31;;;;;;;19.90;8.65;;;8.20;99.90;;;;;;4789004;29;20112;-92
2021/12/29 09:44:57;;;;;;;21.52;8.18;;;8.20;99.90;;;;;;4804408;29;20078;-92
2021/12/29 09:47:23;;;;;;;18.20;8.00;;;8.30;99.90;;;;;;4804192;29;20055;-92
2021/12/29 09:49:48;;;;;;;17.08;7.82;;;8.30;99.90;;;;;;4789110;29;20051;-91
2021/12/29 09:52:14;;;;;;;13.20;7.55;;;8.30;99.90;;;;;;4805372;29;20173;-92
2021/12/29 09:54:40;;;;;;;20.50;7.88;;;8.40;99.90;;;;;;4803856;29;20056;-90
2021/12/29 09:57:05;;;;;;;13.13;7.05;;;8.40;99.90;;;;;;4804886;29;20170;-91
2021/12/29 09:59:31;;;;;;;13.43;6.68;;;8.40;99.90;;;;;;4804789;29;20071;-90
2021/12/29 10:01:57;;;;;;;16.55;6.82;;;8.50;99.90;;;;;;4803537;29;20058;-90
2021/12/29 10:04:24;;;;;;;14.25;6.78;;;8.50;99.90;;;;;;4804105;29;20055;-90
2021/12/29 10:06:49;;;;;;;16.25;6.68;;;8.60;99.90;;;;;;4788468;29;20050;-89
2021/12/29 10:09:17;;;;;;;14.00;6.55;;;8.50;99.90;;;;;;4804238;29;20054;-90
2021/12/29 10:11:43;;;;;;;13.40;6.55;;;8.60;99.90;;;;;;4804851;29;20098;-89
2021/12/29 10:14:09;;;;;;;12.77;6.75;;;8.60;99.90;;;;;;4804028;29;20069;-90
2021/12/29 10:16:35;;;;;;;16.83;6.97;;;8.60;99.90;;;;;;4803782;29;20529;-90
2021/12/29 10:19:03;;;;;;;14.32;6.80;;;8.60;99.90;;;;;;4803660;29;20055;-89
2021/12/29 10:21:29;;;;;;;16.08;6.80;;;8.60;99.90;;;;;;4804140;29;20141;-90
2021/12/29 10:23:56;;;;;;;17.02;7.63;;;8.60;99.90;;;;;;4803298;29;20046;-90
2021/12/29 10:26:30;;;;;;;17.02;7.40;;;8.70;99.90;;;;;;4789091;29;20055;-90
2021/12/29 10:29:00;;;;;;;14.38;7.25;;;8.70;99.90;;;;;;4803551;29;20101;-90
2021/12/29 10:31:41;;;;;;;19.77;7.10;;;8.70;99.90;;;;;;4804033;29;20054;-90
2021/12/29 10:34:12;;;;;;;13.90;7.35;;;8.70;99.90;;;;;;4803959;29;20047;-90
2021/12/29 10:36:47;;;;;;;16.73;7.13;;;8.80;99.90;;;;;;4788527;29;20133;-89
2021/12/29 10:39:49;;;;;;;15.57;7.90;;;8.80;99.90;;;;;;4806148;29;20067;-89
2021/12/29 10:42:16;;;;;;;19.00;7.10;;;8.80;99.90;;;;;;4806803;29;20055;-89
2021/12/29 10:44:47;;;;;;;18.30;7.53;;;8.80;99.90;;;;;;4791979;29;20408;-89
2021/12/29 10:47:15;;;;;;;16.60;7.38;;;8.70;99.90;;;;;;4792378;29;20062;-89
2021/12/29 10:49:55;;;;;;;15.80;7.55;;;8.70;99.90;;;;;;4807149;29;20059;-89
2021/12/29 10:52:31;;;;;;;26.77;7.68;;;8.70;99.90;;;;;;4807005;29;20107;-89
2021/12/29 10:54:56;;;;;;;22.15;7.30;;;8.60;99.90;;;;;;4806607;29;20120;-89
2021/12/29 10:57:22;;;;;;;27.77;7.70;;;8.70;99.90;;;;;;4808025;29;20445;-89
2021/12/29 10:59:55;;;;;;;25.08;7.65;;;8.60;99.90;;;;;;4806513;29;20082;-89
2021/12/29 11:02:31;;;;;;;25.80;7.07;;;8.60;99.90;;;;;;4808213;29;20047;-90
2021/12/29 11:04:58;;;;;;;24.88;7.15;;;8.60;99.90;;;;;;4807202;29;20065;-90
2021/12/29 11:07:28;;;;;;;23.92;7.60;;;8.60;99.90;;;;;;4807095;29;20414;-90
2021/12/29 11:09:53;;;;;;;27.25;7.25;;;8.60;99.90;;;;;;4807560;29;20061;-89
2021/12/29 11:12:20;;;;;;;24.83;6.90;;;8.60;99.90;;;;;;4791839;29;20046;-90
2021/12/29 11:14:50;;;;;;;19.77;6.88;;;8.60;99.90;;;;;;4806125;29;20047;-89
2021/12/29 11:17:23;;;;;;;23.40;6.78;;;8.60;99.90;;;;;;4792351;29;20047;-89
2021/12/29 11:19:56;;;;;;;27.00;6.30;;;8.70;99.90;;;;;;4791634;29;20101;-89
2021/12/29 11:22:24;;;;;;;31.40;7.28;;;8.60;99.90;;;;;;4806709;29;20138;-90
2021/12/29 11:24:54;;;;;;;25.10;6.60;;;8.70;99.90;;;;;;4806319;29;20134;-90
2021/12/29 11:27:20;;;;;;;20.53;6.60;;;8.70;99.90;;;;;;4806540;29;20055;-90
2021/12/29 11:29:49;;;;;;;23.20;5.97;;;8.80;99.90;;;;;;4807352;29;20115;-89
2021/12/29 11:32:22;;;;;;;20.60;5.75;;;8.80;99.90;;;;;;4806384;29;20055;-89
2021/12/29 11:35:09;;;;;;;18.92;5.90;;;8.80;99.90;;;;;;4805939;29;20054;-90
2021/12/29 11:37:48;;;;;;;15.50;6.28;;;8.90;99.90;;;;;;4806411;29;20055;-89
2021/12/29 11:40:35;;;;;;;27.98;6.30;;;8.90;99.90;;;;;;4806058;29;20483;-89
2021/12/29 11:43:01;;;;;;;21.35;5.38;;;9.00;99.90;;;;;;4805701;29;20047;-90
2021/12/29 11:45:27;;;;;;;18.30;5.63;;;9.00;99.90;;;;;;4806589;29;20061;-90
2021/12/29 11:47:53;;;;;;;19.35;4.82;;;9.10;99.90;;;;;;4805997;29;20134;-90
2021/12/29 11:50:25;;;;;;;15.10;5.07;;;9.00;99.90;;;;;;4806602;29;20051;-90
2021/12/29 11:53:12;;;;;;;21.52;5.35;;;9.10;99.90;;;;;;4805861;29;20055;-89
2021/12/29 11:55:43;;;;;;;18.42;5.63;;;9.10;99.90;;;;;;4793732;29;20066;-90
2021/12/29 11:58:26;;;;;;;22.48;5.22;;;9.10;99.90;;;;;;4775970;29;20061;-89
2021/12/29 12:01:09;;;;;;;21.88;4.88;;;9.10;99.90;;;;;;4790652;29;20086;-90
2021/12/29 12:03:43;;;;;;;14.90;4.47;;;9.10;99.90;;;;;;4807152;29;20074;-89
2021/12/29 12:06:21;;;;;;;16.50;4.88;;;9.10;99.90;;;;;;4806607;29;20098;-89
2021/12/29 12:08:46;;;;;;;19.67;4.65;;;9.10;99.90;;;;;;4807107;29;20051;-89
2021/12/29 12:11:28;;;;;;;18.60;4.78;;;9.10;99.90;;;;;;4806411;29;20137;-89
2021/12/29 12:13:53;;;;;;;16.08;4.43;;;9.00;99.90;;;;;;4804895;29;20195;-90
2021/12/29 12:16:20;;;;;;;16.55;4.90;;;9.00;99.90;;;;;;4805656;29;20133;-89
2021/12/29 12:18:50;;;;;;;14.13;4.60;;;9.00;99.90;;;;;;4805452;29;20059;-90
2021/12/29 12:21:39;;;;;;;;;;;8.90;99.90;;;;;;4805741;29;20043;-88
2021/12/29 12:24:32;;;;;;;14.80;4.55;;;8.80;99.90;;;;;;4806311;29;19925;-89
2021/12/29 12:26:59;;;;;;;15.10;5.25;;;8.80;99.90;;;;;;4805885;29;20059;-90
2021/12/29 12:29:27;;;;;;;12.15;5.32;;;8.70;99.90;;;;;;4790527;29;20105;-90
2021/12/29 12:32:21;;;;;;;9.18;4.97;;;8.80;99.90;;;;;;4804792;29;20065;-89
2021/12/29 12:35:14;;;;;;;11.75;4.43;;;8.70;99.90;;;;;;4792298;29;20090;-89
2021/12/29 12:37:42;;;;;;;11.82;3.80;;;8.70;99.90;;;;;;4804972;29;20096;-89
2021/12/29 12:40:14;;;;;;;12.88;4.20;;;8.70;99.90;;;;;;4789781;29;20071;-90
2021/12/29 12:42:40;;;;;;;12.90;3.90;;;8.70;99.90;;;;;;4790236;29;20059;-94
2021/12/29 12:45:17;;;;;;;11.15;4.00;;;8.60;99.90;;;;;;4789901;29;20051;-89
2021/12/29 12:47:43;;;;;;;13.00;4.65;;;8.70;99.90;;;;;;4775481;29;20473;-88
2021/12/29 12:50:09;;;;;;;14.80;4.28;;;8.60;99.90;;;;;;4805846;29;20058;-91